Myrtle, MS (38650)

9:47 AM CST on November 18, 2017 (GMT -0600)
PHQ | | Change Station
Active Advisory: Wind Advisory

Elev 630 ft 34.83 °N, 89.17 °W | Updated 25 seconds ago

Overcast
Overcast
68.0 °F
Feels Like 68.0 °F
N
0.0
Wind Variable Wind from SW

Today
High -- | Low -- °F
--% Chance of Precip.
Yesterday
High -- | Low -- °F
Precip. -- in
Pressure 29.74 in
Visibility 6.0 miles
Clouds Few 1800 ft
Mostly Cloudy 2200 ft
Overcast 2800 ft
Dew Point 63 °F
Humidity 85%
Rainfall 0.00 in
Snow Depth Not available.
6:33 AM 4:49 PM
New Moon, 0% visible
METAR KUOX 181535Z AUTO 19007G14KT 160V220 6SM -DZ FEW018 BKN022 OVC028 18/17 A2974 RMK AO2
Pressure 29.74 in
Visibility 6.0 miles
Clouds Few 1800 ft
Mostly Cloudy 2200 ft
Overcast 2800 ft
Dew Point 63 °F
Humidity 85%
Rainfall 0.00 in
Snow Depth Not available.
6:33 AM 4:49 PM
New Moon, 0% visible
METAR KUOX 181535Z AUTO 19007G14KT 160V220 6SM -DZ FEW018 BKN022 OVC028 18/17 A2974 RMK AO2

Get Your Daily Forecast Email!

Thanks for signing up!

Be on the lookout for a verification email in your inbox.

You'll start receiving severe weather alerts in your inbox..

×

10-Day Weather Forecast

Almanac

Astronomy

Nov. 18, 2017 Rise Set
Actual Time
Civil Twilight
Nautical Twilight
Astronomical Twilight
Moon
Length of Visible Light
Length of Day
Tomorrow will be .
, % of the Moon is Illuminated

Today's Extremes

State Highs State Lows

Community

WunderPhotos

Category 6

Welcome to Category 6. This is the collective home for Weather Underground's featured writeups by Dr. Jeff Masters (right), Bob Henson (left), Chris Burt, and other regular contributors.

Nearby

Air Quality

  Air Quality AQ Index Pollutant
Not available.

Snow Depth

Station Depth Elevation

Earthquake Activity

City Distance Mag. Time & Date
Minimum magnitude displayed is 2.5.

Coastal Water Temperatures

Place Temperature

Stations

Nearby Weather Stations

Station Location Temp. Windchill Dew Point Humidity Wind Precip. Elev Updated Type
                   

Watches & Warnings

Wind Advisory
Issued: 3:13 AM CST Nov. 18, 2017 – National Weather Service

... Wind Advisory in effect until 9 PM CST this evening...

The National Weather Service in Memphis has issued a Wind
Advisory, which is in effect until 9 PM CST this evening.

* Winds... sustained winds of 25 to 30 mph with gusts to near 40
mph possible.

* Timing... through Saturday evening.

* Impacts... scattered downed trees and possible power outages are
possible. Driving will also be difficult for high profile
vehicles.

Precautionary/preparedness actions...

A Wind Advisory means that sustained winds of 25 mph or greater
are expected. Winds this strong can make driving difficult,
especially for high profile vehicles. Use extra caution.